Time;durP1;ratioP1;P1;durP2;ratioP2;P2;SDS_P1;SDS_P2;PMS_P1;PMS_P2;Temp;Humidity;BMP_temperature;BMP_pressure;BME280_temperature;BME280_humidity;BME280_pressure;Samples;Min_cycle;Max_cycle;Signal;HPM_P1;HPM_P2
2022/06/26 00:01:04;;;;;;;;;0.00;0.00;;;;;19.37;59.38;100996.78;5093893;27;45341;-85
2022/06/26 00:03:30;;;;;;;;;0.33;0.33;;;;;18.81;58.99;100896.59;5090023;27;47060;-89
2022/06/26 00:05:59;;;;;;;;;1.00;1.00;;;;;18.64;58.78;100870.84;5092850;27;45480;-88
2022/06/26 00:12:03;;;;;;;;;0.00;0.00;;;;;19.38;58.67;100998.50;5102024;22;45610;-86
2022/06/26 00:14:35;;;;;;;;;2.00;1.00;;;;;18.91;58.32;100922.78;5088601;27;47061;-86
2022/06/26 00:17:00;;;;;;;;;1.00;1.00;;;;;18.56;58.75;100871.41;5096523;27;45478;-87
2022/06/26 00:19:32;;;;;;;;;1.00;1.00;;;;;18.04;58.71;100786.28;5095727;27;45644;-88
2022/06/26 00:21:58;;;;;;;;;2.00;1.00;;;;;19.09;58.81;100968.31;5093426;27;45524;-86
2022/06/26 00:25:01;;;;;;;;;2.00;2.00;;;;;19.34;58.88;100999.72;5087844;27;45501;-88
2022/06/26 00:27:27;;;;;;;;;1.00;1.00;;;;;18.72;58.31;100911.63;5088850;27;45562;-85
2022/06/26 00:29:52;;;;;;;;;0.00;0.00;;;;;18.59;58.78;100879.31;5096339;27;45385;-83
2022/06/26 00:32:18;;;;;;;;;0.00;0.00;;;;;18.89;58.51;100926.59;5095244;27;45502;-85
2022/06/26 00:34:43;;;;;;;;;2.33;1.00;;;;;19.35;58.56;100988.78;5098370;27;46219;-84
2022/06/26 00:37:09;;;;;;;;;1.33;1.33;;;;;18.67;58.25;100890.38;5076245;27;46190;-84
2022/06/26 00:39:34;;;;;;;;;2.33;1.00;;;;;19.40;58.61;101002.81;5088202;27;45433;-85
2022/06/26 00:41:59;;;;;;;;;1.00;1.00;;;;;18.68;58.48;100884.00;5090583;27;45433;-84
2022/06/26 00:44:25;;;;;;;;;0.33;0.33;;;;;19.27;58.72;100979.53;5094391;27;46344;-84
2022/06/26 00:46:51;;;;;;;;;1.00;1.00;;;;;19.33;59.08;100990.75;5097441;27;45366;-84
2022/06/26 00:49:18;;;;;;;;;2.00;1.00;;;;;19.27;58.91;100977.72;5095055;27;45450;-84
2022/06/26 00:51:47;;;;;;;;;0.67;0.67;;;;;19.08;58.99;100950.34;5094504;27;45481;-84
2022/06/26 00:54:13;;;;;;;;;1.00;1.00;;;;;19.10;58.72;100961.91;5094239;27;46920;-84
2022/06/26 00:56:39;;;;;;;;;0.67;0.33;;;;;19.11;58.79;100977.16;5092070;27;45761;-85
2022/06/26 00:59:04;;;;;;;;;1.67;1.00;;;;;18.87;58.71;100940.22;5094939;27;45640;-84
2022/06/26 01:01:31;;;;;;;;;1.67;1.33;;;;;19.21;58.56;101005.19;5095864;27;45465;-84
2022/06/26 01:03:57;;;;;;;;;0.00;0.00;;;;;18.92;58.40;100965.03;5094070;27;46649;-83
2022/06/26 01:06:23;;;;;;;;;3.00;1.00;;;;;19.22;58.61;101015.00;5096398;27;45593;-83
2022/06/26 01:08:49;;;;;;;;;1.00;0.00;;;;;18.75;58.78;100924.88;5094360;27;45431;-84
2022/06/26 01:11:23;;;;;;;;;2.00;2.00;;;;;19.11;58.92;100969.06;5095516;27;45574;-84
2022/06/26 01:13:51;;;;;;;;;2.00;2.00;;;;;19.22;58.59;101003.34;5088195;27;46698;-84
2022/06/26 01:16:18;;;;;;;;;1.00;1.00;;;;;19.14;58.94;101001.22;5096827;27;45481;-85
2022/06/26 01:18:45;;;;;;;;;1.00;1.00;;;;;19.11;58.71;101009.59;5095722;27;45177;-84
2022/06/26 01:21:11;;;;;;;;;0.67;0.67;;;;;19.15;58.96;101014.66;5094643;27;48472;-84
2022/06/26 01:23:37;;;;;;;;;1.00;1.00;;;;;19.15;58.75;101020.03;5093947;27;45774;-84
2022/06/26 01:26:03;;;;;;;;;1.00;1.00;;;;;18.99;58.85;100997.88;5095886;27;45617;-84
2022/06/26 01:28:28;;;;;;;;;0.00;0.00;;;;;18.89;59.14;100977.91;5096853;27;45505;-84
2022/06/26 01:30:54;;;;;;;;;2.33;1.33;;;;;18.82;59.07;100960.44;5093805;27;45555;-84
2022/06/26 01:33:20;;;;;;;;;1.00;1.00;;;;;19.09;58.94;101006.13;5095085;27;45984;-83
2022/06/26 01:35:45;;;;;;;;;1.00;1.00;;;;;19.02;58.79;101003.03;5093889;27;45583;-84
2022/06/26 01:38:21;;;;;;;;;1.00;1.00;;;;;18.88;59.00;100987.00;5095161;27;45531;-84
2022/06/26 01:40:48;;;;;;;;;3.67;1.67;;;;;19.07;59.07;101025.16;5093910;27;45568;-84
2022/06/26 01:43:17;;;;;;;;;2.00;1.00;;;;;19.09;58.97;101039.41;5071802;28;48845;-85
2022/06/26 01:45:44;;;;;;;;;2.00;2.00;;;;;18.87;59.06;101001.47;5090080;27;45552;-83
2022/06/26 01:48:09;;;;;;;;;3.00;0.00;;;;;19.07;59.31;101033.25;5093660;27;45429;-84
2022/06/26 01:50:35;;;;;;;;;1.00;1.00;;;;;18.87;59.41;101013.16;5094549;27;45833;-84
2022/06/26 01:53:00;;;;;;;;;1.00;1.00;;;;;18.75;59.32;100995.09;5081550;27;46455;-84
2022/06/26 01:55:26;;;;;;;;;1.00;1.00;;;;;19.00;59.33;101042.78;5094039;27;47302;-84
2022/06/26 01:57:51;;;;;;;;;3.00;1.00;;;;;18.92;59.62;101040.66;5077019;27;45471;-84
2022/06/26 02:00:16;;;;;;;;;0.33;0.33;;;;;18.86;59.21;101019.50;5090250;27;45301;-83
2022/06/26 02:02:42;;;;;;;;;1.67;1.00;;;;;18.86;59.69;101022.22;5093202;27;47182;-83
2022/06/26 02:05:07;;;;;;;;;1.00;1.00;;;;;18.86;59.46;101024.06;5095120;27;45463;-83
2022/06/26 02:07:33;;;;;;;;;2.00;2.00;;;;;18.92;59.01;101031.72;5084593;27;45524;-83
2022/06/26 02:15:26;;;;;;;;;0.33;0.33;;;;;18.94;59.16;101030.63;5093344;27;45679;-83
2022/06/26 02:17:51;;;;;;;;;0.33;0.33;;;;;18.89;59.17;101019.28;5093398;27;45963;-83
2022/06/26 02:20:16;;;;;;;;;3.00;1.00;;;;;18.87;59.33;101015.84;5088647;27;45332;-83
2022/06/26 02:22:42;;;;;;;;;1.00;1.00;;;;;18.83;59.29;101018.88;5096720;27;46709;-83
2022/06/26 02:25:08;;;;;;;;;1.67;1.00;;;;;19.00;59.11;101052.75;5093446;27;45374;-83
2022/06/26 02:27:34;;;;;;;;;2.33;1.00;;;;;19.02;58.77;101058.91;5094756;27;45386;-83
2022/06/26 02:30:00;;;;;;;;;2.00;2.00;;;;;18.77;59.07;101021.03;5093065;27;45514;-83
2022/06/26 02:32:25;;;;;;;;;1.00;1.00;;;;;19.00;58.84;101053.59;5092754;27;45520;-82
2022/06/26 02:34:50;;;;;;;;;2.00;2.00;;;;;18.47;59.13;100958.47;5096353;27;45399;-83
2022/06/26 02:37:16;;;;;;;;;1.00;1.00;;;;;18.82;58.79;101027.94;5093272;27;45402;-83
2022/06/26 02:39:41;;;;;;;;;1.33;1.00;;;;;18.93;59.07;101042.38;5092807;27;45323;-83
2022/06/26 02:42:06;;;;;;;;;1.00;1.00;;;;;18.95;59.08;101034.19;5092944;27;45636;-83
2022/06/26 02:44:32;;;;;;;;;0.00;0.00;;;;;18.84;58.90;101013.34;5092232;27;48685;-83
2022/06/26 02:46:57;;;;;;;;;2.00;2.00;;;;;18.83;58.75;101003.53;5095529;27;45257;-83
2022/06/26 02:49:22;;;;;;;;;2.33;2.33;;;;;18.83;58.88;101008.94;5094458;27;45422;-83
2022/06/26 02:51:48;;;;;;;;;2.33;1.67;;;;;18.98;58.92;101037.50;5092550;27;46184;-83
2022/06/26 02:54:13;;;;;;;;;1.00;1.00;;;;;18.96;58.68;101030.47;5092695;27;45316;-83
2022/06/26 02:56:39;;;;;;;;;1.00;1.00;;;;;19.05;59.10;101040.59;5093010;27;45546;-83
2022/06/26 02:59:04;;;;;;;;;0.67;0.67;;;;;19.06;59.03;101052.28;5095148;27;45405;-83
2022/06/26 03:01:30;;;;;;;;;2.00;1.00;;;;;18.74;59.06;100996.94;5089997;27;47118;-83
2022/06/26 03:03:55;;;;;;;;;1.00;1.00;;;;;18.92;59.22;101037.97;5094974;27;45489;-82
2022/06/26 03:06:20;;;;;;;;;1.00;1.00;;;;;19.03;58.86;101047.09;5092545;27;45785;-83
2022/06/26 03:08:46;;;;;;;;;2.33;0.67;;;;;18.85;58.76;101020.50;5093055;27;45462;-83
2022/06/26 03:11:11;;;;;;;;;1.67;1.00;;;;;19.12;58.47;101068.03;5075084;27;47074;-83
2022/06/26 03:13:36;;;;;;;;;1.67;1.67;;;;;19.05;58.52;101051.41;5094872;27;45324;-83
2022/06/26 03:16:01;;;;;;;;;2.00;2.00;;;;;19.14;58.68;101063.38;5092603;27;45552;-82
2022/06/26 03:18:27;;;;;;;;;1.00;1.00;;;;;19.09;58.26;101068.28;5092799;27;45955;-83
2022/06/26 03:20:52;;;;;;;;;1.67;0.33;;;;;18.95;58.58;101034.19;5092465;27;46291;-84
2022/06/26 03:23:18;;;;;;;;;1.00;1.00;;;;;18.88;58.39;101030.22;5093053;27;45356;-83
2022/06/26 03:25:43;;;;;;;;;0.67;0.67;;;;;19.13;58.11;101067.94;5096331;27;45386;-83
2022/06/26 03:28:08;;;;;;;;;2.33;2.33;;;;;19.13;58.19;101067.94;5092471;27;45950;-83
2022/06/26 03:30:33;;;;;;;;;1.00;1.00;;;;;18.90;57.99;101036.38;5092117;27;46464;-83
2022/06/26 03:32:59;;;;;;;;;0.00;0.00;;;;;19.10;58.19;101076.25;5092749;27;45387;-82
2022/06/26 03:35:24;;;;;;;;;1.67;1.00;;;;;18.89;57.82;101037.31;5092181;27;45567;-82
2022/06/26 03:37:50;;;;;;;;;2.67;2.00;;;;;19.00;57.84;101055.44;5095815;27;45560;-83
2022/06/26 03:40:15;;;;;;;;;1.67;1.67;;;;;18.92;58.10;101042.53;5092412;27;46259;-83
2022/06/26 03:42:41;;;;;;;;;2.00;1.00;;;;;19.10;57.95;101070.84;5092131;27;45513;-83
2022/06/26 03:45:07;;;;;;;;;3.33;2.00;;;;;19.02;57.99;101064.31;5092397;27;45512;-82
2022/06/26 03:47:33;;;;;;;;;2.00;1.00;;;;;18.98;57.67;101052.84;5092624;27;45625;-83
2022/06/26 03:49:59;;;;;;;;;1.00;1.00;;;;;19.00;57.57;101052.75;5094319;27;46396;-83
2022/06/26 03:52:25;;;;;;;;;1.00;1.00;;;;;18.76;57.21;101011.22;5096596;27;45514;-83
2022/06/26 03:54:51;;;;;;;;;0.67;0.67;;;;;19.12;57.28;101070.75;5095782;27;45455;-83
2022/06/26 03:57:16;;;;;;;;;1.33;1.33;;;;;19.13;57.18;101067.06;5095440;27;45531;-83
2022/06/26 03:59:42;;;;;;;;;1.00;0.67;;;;;18.98;57.33;101042.91;5092490;27;47271;-83
2022/06/26 04:02:07;;;;;;;;;2.00;1.00;;;;;19.05;57.45;101048.72;5096671;27;45404;-83
2022/06/26 04:04:32;;;;;;;;;3.00;1.00;;;;;19.12;57.51;101063.50;5099291;27;45922;-83
2022/06/26 04:06:57;;;;;;;;;1.00;1.00;;;;;19.16;57.06;101072.25;5095519;27;45510;-83
2022/06/26 04:09:23;;;;;;;;;1.67;0.67;;;;;19.19;56.75;101082.81;5095196;27;47505;-83
2022/06/26 04:11:48;;;;;;;;;1.00;1.00;;;;;19.17;56.89;101082.94;5095188;27;45477;-83
2022/06/26 04:14:13;;;;;;;;;2.00;2.00;;;;;19.22;56.47;101093.38;5078184;27;45293;-83
2022/06/26 04:16:39;;;;;;;;;1.00;1.00;;;;;19.19;56.63;101093.63;5081755;27;45463;-82
2022/06/26 04:19:04;;;;;;;;;3.00;1.00;;;;;18.95;56.47;101056.66;5095227;27;46537;-83
2022/06/26 04:21:29;;;;;;;;;1.33;1.33;;;;;18.95;55.79;101062.03;5096496;27;45452;-83
2022/06/26 04:23:55;;;;;;;;;2.33;1.33;;;;;19.22;56.27;101115.00;5096788;27;45522;-83
2022/06/26 04:26:20;;;;;;;;;2.00;1.00;;;;;19.08;56.03;101091.72;5095167;27;45461;-83
2022/06/26 04:28:46;;;;;;;;;2.00;2.00;;;;;19.09;56.01;101088.03;5098778;27;46349;-83
2022/06/26 04:31:11;;;;;;;;;1.00;1.00;;;;;18.90;55.83;101063.38;5076566;27;45499;-82
2022/06/26 04:33:36;;;;;;;;;1.00;1.00;;;;;18.94;55.47;101068.44;5094325;27;45808;-83
2022/06/26 04:36:02;;;;;;;;;2.33;1.00;;;;;19.21;55.14;101125.94;5095179;27;45473;-82
2022/06/26 04:38:27;;;;;;;;;0.00;0.00;;;;;19.13;55.36;101118.41;5094085;27;45954;-83
2022/06/26 04:40:53;;;;;;;;;1.00;1.00;;;;;19.21;55.12;101131.34;5095232;27;45314;-83
2022/06/26 04:43:18;;;;;;;;;2.33;1.00;;;;;19.02;55.20;101094.88;5095362;27;45605;-83
2022/06/26 04:45:43;;;;;;;;;1.00;1.00;;;;;19.11;55.05;101110.41;5094661;27;45481;-83
2022/06/26 04:48:09;;;;;;;;;1.00;1.00;;;;;19.10;55.15;101103.25;5094202;27;45938;-83
2022/06/26 04:50:35;;;;;;;;;2.67;1.00;;;;;19.13;55.84;101113.88;5094162;27;45654;-83
2022/06/26 04:53:00;;;;;;;;;1.00;1.00;;;;;19.09;55.10;101109.66;5096694;27;45315;-83
2022/06/26 04:55:25;;;;;;;;;1.00;1.00;;;;;19.19;55.53;101137.72;5095488;27;45469;-83
2022/06/26 04:57:51;;;;;;;;;2.33;2.00;;;;;18.98;55.08;101099.63;5075737;27;47199;-83
2022/06/26 05:00:16;;;;;;;;;1.00;1.00;;;;;19.14;55.30;101118.28;5093130;27;46003;-83
2022/06/26 05:02:42;;;;;;;;;1.00;1.00;;;;;18.96;55.05;101093.50;5097101;27;45529;-83
2022/06/26 05:05:07;;;;;;;;;2.00;0.33;;;;;19.28;55.59;101140.72;5096423;27;45389;-83
2022/06/26 05:07:33;;;;;;;;;1.00;1.00;;;;;19.30;55.52;101139.63;5092210;27;46950;-83
2022/06/26 05:09:59;;;;;;;;;0.33;0.33;;;;;19.19;55.37;101126.91;5093750;27;45634;-83
2022/06/26 05:12:25;;;;;;;;;1.00;1.00;;;;;19.31;55.69;101140.50;5093955;27;45903;-83
2022/06/26 05:14:50;;;;;;;;;3.00;1.00;;;;;19.20;55.27;101138.59;5094486;27;45624;-83
2022/06/26 05:17:16;;;;;;;;;1.00;0.00;;;;;19.34;55.49;101143.84;5094234;27;47353;-82
2022/06/26 05:19:41;;;;;;;;;1.00;1.00;;;;;19.40;55.23;101165.00;5072685;27;46097;-83
2022/06/26 05:22:07;;;;;;;;;0.00;0.00;;;;;19.21;54.73;101132.22;5095917;27;45601;-84
2022/06/26 05:24:32;;;;;;;;;1.33;1.00;;;;;19.35;54.86;101147.41;5094405;27;45425;-83
2022/06/26 05:26:58;;;;;;;;;1.67;1.00;;;;;19.45;55.04;101163.81;5092366;27;45628;-83
2022/06/26 05:29:25;;;;;;;;;2.67;1.33;;;;;19.38;54.93;101144.47;5093840;27;45569;-83
2022/06/26 05:31:51;;;;;;;;;3.67;2.33;;;;;19.28;54.93;101119.97;5090381;27;45565;-84
2022/06/26 05:34:17;;;;;;;;;2.00;1.00;;;;;19.47;55.60;101149.19;5094125;27;45493;-83
2022/06/26 05:36:42;;;;;;;;;1.00;1.00;;;;;19.33;54.89;101128.59;5093300;27;45441;-83
2022/06/26 05:39:08;;;;;;;;;1.00;1.00;;;;;19.46;55.01;101152.88;5073852;27;48482;-83
2022/06/26 05:41:33;;;;;;;;;1.00;1.00;;;;;19.32;55.00;101120.63;5086500;27;45521;-82
2022/06/26 05:43:59;;;;;;;;;3.00;1.00;;;;;19.35;55.27;101125.78;5086816;27;45599;-83
2022/06/26 05:46:24;;;;;;;;;1.33;1.33;;;;;19.40;54.92;101123.59;5090398;27;47165;-83
2022/06/26 05:48:49;;;;;;;;;3.33;2.33;;;;;19.59;55.46;101158.22;5092899;27;45498;-84
2022/06/26 05:51:15;;;;;;;;;1.00;1.00;;;;;19.51;54.82;101128.22;5092869;27;46016;-84
2022/06/26 05:53:56;;;;;;;;;1.00;1.00;;;;;19.74;54.84;101156.25;5095662;27;45447;-84
2022/06/26 05:56:21;;;;;;;;;2.00;2.00;;;;;19.61;54.52;101138.19;5078613;27;47955;-83
2022/06/26 05:58:47;;;;;;;;;4.00;1.00;;;;;19.76;54.33;101163.28;5097570;27;45527;-83
2022/06/26 06:01:13;;;;;;;;;2.00;1.00;;;;;19.63;54.84;101135.38;5088936;27;45496;-83
2022/06/26 06:03:38;;;;;;;;;2.00;1.00;;;;;19.85;54.12;101169.81;5095654;27;45463;-83
2022/06/26 06:06:04;;;;;;;;;2.00;0.67;;;;;19.88;54.27;101175.00;5089172;27;55714;-83
2022/06/26 06:08:29;;;;;;;;;1.67;1.67;;;;;19.67;54.31;101133.31;5092798;27;45479;-83
2022/06/26 06:10:54;;;;;;;;;3.00;1.67;;;;;19.71;53.32;101138.38;5095833;27;47345;-83
2022/06/26 06:13:20;;;;;;;;;1.00;1.00;;;;;19.63;53.39;101124.56;5093530;27;45425;-83
2022/06/26 06:15:45;;;;;;;;;1.67;1.67;;;;;19.69;53.03;101134.97;5092657;27;46132;-83
2022/06/26 06:18:12;;;;;;;;;1.00;1.00;;;;;19.93;53.13;101166.53;5092815;27;50599;-83
2022/06/26 06:20:38;;;;;;;;;2.33;1.33;;;;;20.07;52.74;101182.56;5093077;27;45499;-83
2022/06/26 06:23:05;;;;;;;;;1.00;1.00;;;;;19.99;52.94;101171.47;5077290;27;45450;-83
2022/06/26 06:25:32;;;;;;;;;1.00;1.00;;;;;20.10;52.40;101184.19;5088580;27;46296;-83
2022/06/26 06:27:57;;;;;;;;;1.67;1.67;;;;;20.08;52.51;101178.88;5092762;27;45502;-83
2022/06/26 06:30:23;;;;;;;;;1.33;1.00;;;;;20.14;51.94;101194.66;5092995;27;45351;-84
2022/06/26 06:32:49;;;;;;;;;0.00;0.00;;;;;20.16;51.75;101190.00;5090462;27;45336;-85
2022/06/26 06:35:17;;;;;;;;;0.00;0.00;;;;;20.17;51.88;101194.41;5092750;27;50123;-88
2022/06/26 06:37:44;;;;;;;;;3.00;1.33;;;;;20.19;51.39;101197.84;5088201;27;45509;-83
2022/06/26 06:40:18;;;;;;;;;2.00;1.00;;;;;19.41;51.47;101071.28;5090582;27;45481;-83
2022/06/26 06:42:43;;;;;;;;;2.00;0.67;;;;;19.40;51.26;101070.38;5089999;27;45318;-84
2022/06/26 06:45:09;;;;;;;;;2.00;1.00;;;;;19.08;50.31;101007.09;5093646;27;46763;-84
2022/06/26 06:47:36;;;;;;;;;2.00;0.00;;;;;20.08;50.58;101173.47;5073706;27;45899;-83
2022/06/26 06:50:02;;;;;;;;;1.67;0.00;;;;;19.63;50.36;101092.13;5094444;27;45432;-84
2022/06/26 06:52:27;;;;;;;;;2.00;0.33;;;;;19.76;51.28;101117.28;5095624;27;45488;-84
2022/06/26 06:54:55;;;;;;;;;0.33;0.33;;;;;19.26;50.85;101029.16;5087702;27;46296;-84
2022/06/26 06:57:20;;;;;;;;;2.33;1.33;;;;;20.08;49.78;101159.06;5093890;27;45425;-84
2022/06/26 06:59:46;;;;;;;;;1.67;0.33;;;;;20.39;49.95;101214.41;5092822;27;45505;-84
2022/06/26 07:02:11;;;;;;;;;1.67;0.33;;;;;20.43;50.85;101205.91;5094613;27;45445;-82
2022/06/26 07:04:37;;;;;;;;;1.33;1.33;;;;;20.40;50.12;101197.19;5095535;27;45981;-83
2022/06/26 07:07:04;;;;;;;;;1.00;1.00;;;;;20.38;49.84;101191.88;5093390;27;45640;-81
2022/06/26 07:09:29;;;;;;;;;1.00;1.00;;;;;20.25;49.16;101185.69;5093566;27;45564;-82
2022/06/26 07:11:54;;;;;;;;;4.67;2.33;;;;;20.34;49.20;101205.78;5074926;27;45741;-82
2022/06/26 07:14:20;;;;;;;;;1.67;0.00;;;;;20.32;49.36;101200.50;5093327;27;46211;-82
2022/06/26 07:16:47;;;;;;;;;2.00;1.00;;;;;20.53;49.20;101226.88;5095889;27;45505;-82
2022/06/26 07:19:13;;;;;;;;;2.00;0.67;;;;;20.55;48.13;101227.59;5092633;27;45508;-84
2022/06/26 07:21:38;;;;;;;;;1.00;1.00;;;;;20.29;48.15;101189.03;5093775;27;45685;-83
2022/06/26 07:24:04;;;;;;;;;0.00;0.00;;;;;20.34;48.46;101193.09;5093043;27;46922;-84
2022/06/26 07:26:29;;;;;;;;;1.00;1.00;;;;;20.32;48.62;101159.00;5093305;27;45463;-84
2022/06/26 07:28:55;;;;;;;;;1.33;1.00;;;;;20.40;48.13;101167.41;5098073;27;45429;-83
2022/06/26 07:31:20;;;;;;;;;0.00;0.00;;;;;20.47;47.87;101178.63;5095927;27;45513;-82
2022/06/26 07:36:30;;;;;;;;;0.67;0.67;;;;;20.90;46.94;101229.41;5094654;27;45416;-83
2022/06/26 07:38:55;;;;;;;;;0.00;0.00;;;;;20.73;46.29;101192.84;5089105;27;46098;-83
2022/06/26 07:41:21;;;;;;;;;0.00;0.00;;;;;21.18;46.52;101260.59;5095102;27;45484;-83
2022/06/26 07:43:47;;;;;;;;;3.00;1.00;;;;;21.02;46.43;101217.59;5096906;27;45993;-84
2022/06/26 07:46:12;;;;;;;;;1.00;1.00;;;;;21.32;45.73;101265.78;5093695;27;45627;-84
2022/06/26 07:48:37;;;;;;;;;0.67;0.67;;;;;21.12;45.34;101221.31;5095434;27;45290;-84
2022/06/26 07:51:03;;;;;;;;;2.00;0.00;;;;;21.10;45.18;101214.28;5086108;27;45435;-84
2022/06/26 07:53:28;;;;;;;;;0.00;0.00;;;;;21.40;44.66;101255.22;5087008;27;45492;-82
2022/06/26 07:55:54;;;;;;;;;2.00;0.00;;;;;21.54;45.67;101261.34;5079763;27;45370;-83
2022/06/26 07:58:20;;;;;;;;;1.00;1.00;;;;;21.33;45.05;101217.81;5097012;27;45394;-84
2022/06/26 08:00:45;;;;;;;;;0.00;0.00;;;;;21.60;44.84;101241.84;5093404;27;45565;-83
2022/06/26 08:03:14;;;;;;;;;0.00;0.00;;;;;21.82;44.26;101249.06;5094945;27;45450;-83
2022/06/26 08:05:40;;;;;;;;;0.67;0.67;;;;;21.71;44.06;101215.56;5095564;27;45687;-84
2022/06/26 08:08:05;;;;;;;;;0.33;0.33;;;;;21.98;43.58;101245.94;5097698;27;46099;-83
2022/06/26 08:10:31;;;;;;;;;0.33;0.33;;;;;21.78;43.97;101207.78;5097114;27;45538;-82
2022/06/26 08:12:57;;;;;;;;;1.67;1.00;;;;;21.45;43.35;101143.66;5095183;27;45615;-84
2022/06/26 08:15:24;;;;;;;;;2.00;0.00;;;;;21.95;42.58;101219.91;5097008;27;45556;-84
2022/06/26 08:17:49;;;;;;;;;0.00;0.00;;;;;22.08;42.43;101241.47;5095120;27;45572;-83
2022/06/26 08:20:15;;;;;;;;;0.00;0.00;;;;;22.15;42.44;101250.84;5096355;27;45498;-83
2022/06/26 08:22:41;;;;;;;;;0.00;0.00;;;;;22.00;42.31;101220.38;5098074;27;45743;-84
2022/06/26 08:25:07;;;;;;;;;0.00;0.00;;;;;21.89;42.94;101191.47;5095042;27;45545;-83
2022/06/26 08:27:32;;;;;;;;;0.33;0.33;;;;;22.26;42.51;101234.50;5095096;27;45680;-84
2022/06/26 08:29:58;;;;;;;;;0.67;0.67;;;;;22.30;42.14;101227.81;5090236;27;45478;-85
2022/06/26 08:32:23;;;;;;;;;0.33;0.33;;;;;22.35;42.10;101211.13;5092320;27;46122;-84
2022/06/26 08:34:49;;;;;;;;;0.00;0.00;;;;;22.55;41.54;101242.03;5090699;27;45496;-84
2022/06/26 08:37:16;;;;;;;;;2.00;1.00;;;;;22.51;41.19;101210.66;5093628;27;45476;-84
2022/06/26 08:39:42;;;;;;;;;0.00;0.00;;;;;22.68;40.92;101217.34;5094725;27;45516;-84
2022/06/26 08:42:08;;;;;;;;;1.00;1.00;;;;;22.39;40.84;101171.00;5090850;27;46360;-85
2022/06/26 08:44:42;;;;;;;;;1.67;0.67;;;;;22.57;40.70;101222.84;5094705;27;45518;-84
2022/06/26 08:49:43;;;;;;;;;1.67;1.67;;;;;22.14;40.02;101135.91;5103377;22;58555;-84
2022/06/26 08:52:21;;;;;;;;;1.25;1.00;;;;;22.95;40.02;101250.25;5076638;27;47166;-84
2022/06/26 08:54:48;;;;;;;;;0.00;0.00;;;;;22.82;39.61;101216.13;5090497;27;45533;-85
2022/06/26 08:57:15;;;;;;;;;0.00;0.00;;;;;22.47;40.11;101117.69;5087983;27;45548;-84
2022/06/26 08:59:41;;;;;;;;;2.00;1.33;;;;;22.33;39.47;101052.88;5091911;27;45507;-84
2022/06/26 09:04:39;;;;;;;;;1.00;1.00;;;;;23.72;38.16;101160.91;5102845;22;71807;-86
2022/06/26 09:07:09;;;;;;;;;0.00;0.00;;;;;23.69;37.68;101118.47;5090137;27;45792;-85
2022/06/26 09:09:39;;;;;;;;;1.00;1.00;;;;;23.57;37.01;101035.25;5094032;27;45533;-87
2022/06/26 09:12:08;;;;;;;;;0.50;0.50;;;;;24.76;37.60;101213.72;5091125;27;46140;-84
2022/06/26 09:14:33;;;;;;;;;0.00;0.00;;;;;24.08;36.18;101098.56;5090927;27;45373;-84
2022/06/26 09:16:59;;;;;;;;;2.00;1.67;;;;;24.79;35.57;101188.03;5075958;27;45348;-84
2022/06/26 09:19:33;;;;;;;;;0.00;0.00;;;;;24.93;35.67;101211.22;5092737;27;45391;-84
2022/06/26 09:22:15;;;;;;;;;0.00;0.00;;;;;24.84;36.17;101181.13;5091528;27;47247;-82
2022/06/26 09:24:57;;;;;;;;;0.00;0.00;;;;;25.17;35.89;101207.97;5084329;27;45439;-83
2022/06/26 09:27:25;;;;;;;;;0.33;0.33;;;;;25.44;34.46;101199.81;5088071;27;45422;-82
2022/06/26 09:29:54;;;;;;;;;1.00;1.00;;;;;25.47;34.51;101171.34;5089692;27;45603;-83
2022/06/26 09:32:21;;;;;;;;;1.00;1.00;;;;;25.95;34.51;101193.91;5085089;27;46326;-84
2022/06/26 09:35:05;;;;;;;;;0.00;0.00;;;;;26.13;35.51;101128.28;5085554;27;45565;-85
2022/06/26 09:37:37;;;;;;;;;1.00;1.00;;;;;26.93;34.12;101197.38;5094778;27;45726;-86
2022/06/26 09:40:59;;;;;;;;;0.00;0.00;;;;;25.98;32.31;101027.81;5089742;27;45478;-86
2022/06/26 09:43:27;;;;;;;;;0.25;0.00;;;;;27.01;31.33;101199.28;5034056;28;46980;-87
2022/06/26 09:46:01;;;;;;;;;0.00;0.00;;;;;26.96;31.73;101180.63;5035598;28;45429;-84
2022/06/26 09:48:29;;;;;;;;;0.75;0.75;;;;;27.19;30.72;101204.69;5030879;28;45700;-85
2022/06/26 09:51:24;;;;;;;;;0.00;0.00;;;;;27.26;30.07;101198.41;5033449;28;45580;-85
2022/06/26 09:53:42;;;;;;;;;0.00;0.00;;;;;27.26;30.01;101194.81;5028333;28;45612;-86
2022/06/26 09:56:07;;;;;;;;;0.50;0.50;;;;;27.33;30.31;101194.00;5032741;28;45760;-86
2022/06/26 09:58:39;;;;;;;;;0.00;0.00;;;;;26.39;30.84;101014.38;5033851;28;45625;-86
2022/06/26 10:07:31;;;;;;;;;1.00;1.00;;;;;28.59;29.11;101187.50;5032167;28;45683;-86
2022/06/26 10:09:57;;;;;;;;;0.50;0.25;;;;;28.76;28.50;101158.13;4954455;28;45544;-86
2022/06/26 10:12:23;;;;;;;;;0.25;0.25;;;;;28.84;27.50;101136.13;4948301;28;45486;-84
2022/06/26 10:14:53;;;;;;;;;0.00;0.00;;;;;28.26;27.28;100992.84;4987262;28;45596;-86
2022/06/26 10:18:09;;;;;;;;;1.00;1.00;;;;;28.98;27.54;101098.84;4975317;28;45519;-85
2022/06/26 10:20:37;;;;;;;;;0.00;0.00;;;;;29.79;27.22;101168.13;4984419;28;45477;-85
2022/06/26 10:23:08;;;;;;;;;1.00;1.00;;;;;29.11;28.17;101000.34;4991101;28;45560;-85
2022/06/26 10:25:34;;;;;;;;;0.25;0.25;;;;;29.42;25.23;101014.00;4991472;28;46613;-85
2022/06/26 10:28:56;;;;;;;;;1.50;1.00;;;;;30.63;25.16;101179.09;4991065;28;50039;-87
2022/06/26 10:31:21;;;;;;;;;1.00;1.00;;;;;30.46;25.68;101106.84;4992464;28;45477;-84
2022/06/26 10:34:13;;;;;;;;;0.00;0.00;;;;;31.12;25.04;101175.78;4993308;28;45562;-84
2022/06/26 10:40:10;;;;;;;;;;;;;;;;;;;;;
2022/06/26 10:42:54;;;;;;;;;0.25;0.25;;;;;30.28;24.92;101041.25;4954919;28;69032;-88
2022/06/26 10:45:27;;;;;;;;;0.00;0.00;;;;;31.10;24.52;101184.25;5088881;27;45442;-87
2022/06/26 10:47:55;;;;;;;;;0.00;0.00;;;;;31.03;24.20;101188.81;5092387;27;46268;-86
2022/06/26 10:50:38;;;;;;;;;0.25;0.25;;;;;30.98;24.85;101187.69;5088371;27;45560;-87
2022/06/26 11:04:08;;;;;;;;;0.00;0.00;;;;;30.52;23.24;101124.53;3368553;25;46199;-88
2022/06/26 11:07:13;;;;;;;;;0.00;0.00;;;;;30.91;23.34;101174.66;5021853;28;45488;-88
2022/06/26 11:09:38;;;;;;;;;0.25;0.25;;;;;30.91;23.56;101184.81;5035942;28;46306;-88
2022/06/26 11:12:06;;;;;;;;;0.50;0.50;;;;;30.17;23.62;101072.75;5038284;28;45542;-88
2022/06/26 11:14:32;;;;;;;;;1.00;1.00;;;;;29.52;23.50;101018.38;5037004;28;46146;-86
2022/06/26 11:17:12;;;;;;;;;0.00;0.00;;;;;30.22;23.96;101177.53;5037200;28;45500;-84
2022/06/26 11:22:31;;;;;;;;;1.50;0.00;;;;;29.46;23.98;101107.88;5037047;28;45698;-84
2022/06/26 11:25:00;;;;;;;;;0.33;0.33;;;;;29.52;24.25;101133.75;5036636;28;45465;-85
2022/06/26 11:27:32;;;;;;;;;0.25;0.25;;;;;29.59;24.29;101171.28;5035693;28;45397;-86
2022/06/26 11:32:51;;;;;;;;;0.67;0.67;;;;;28.58;24.70;101030.25;5044520;28;45478;-85
2022/06/26 11:35:30;;;;;;;;;0.00;0.00;;;;;29.10;25.00;101138.63;5036066;28;45616;-87
2022/06/26 11:37:55;;;;;;;;;2.67;1.00;;;;;29.18;24.61;101138.59;5034705;28;45647;-86
2022/06/26 11:40:29;;;;;;;;;0.33;0.33;;;;;29.18;25.96;101159.69;5034609;28;45490;-87
2022/06/26 11:42:56;;;;;;;;;2.00;1.00;;;;;28.75;25.14;101113.38;5034555;28;45467;-86
2022/06/26 11:45:24;;;;;;;;;0.50;0.50;;;;;27.85;25.21;100995.69;5034516;28;45467;-87
2022/06/26 11:47:50;;;;;;;;;3.00;0.00;;;;;27.99;25.60;101027.84;5034399;28;45566;-86
2022/06/26 11:50:31;;;;;;;;;3.00;1.00;;;;;27.62;26.00;100990.03;5033720;28;47051;-84
2022/06/26 11:52:57;;;;;;;;;2.75;0.25;;;;;28.53;25.55;101139.66;5041125;28;45857;-85
2022/06/26 11:55:24;;;;;;;;;1.00;1.00;;;;;28.26;25.54;101098.88;5036542;28;45519;-84
2022/06/26 11:58:12;;;;;;;;;1.33;1.33;;;;;28.66;26.47;101149.22;5036914;28;45416;-85
2022/06/26 12:00:37;;;;;;;;;1.33;1.33;;;;;28.09;26.30;101068.75;5036457;28;46127;-85
2022/06/26 12:03:03;;;;;;;;;0.50;0.50;;;;;28.34;25.20;101097.00;5032715;28;45502;-81
2022/06/26 12:05:30;;;;;;;;;1.00;1.00;;;;;27.94;25.55;101033.00;5023626;28;45704;-84
2022/06/26 12:07:56;;;;;;;;;0.33;0.33;;;;;27.95;25.59;101055.78;5020056;28;45530;-83
2022/06/26 12:10:32;;;;;;;;;0.00;0.00;;;;;28.59;25.41;101157.31;5035754;28;45549;-85
2022/06/26 12:12:58;;;;;;;;;2.00;0.50;;;;;28.44;25.20;101135.19;5030678;28;45527;-84